createdAt,value
2019-05-18T00:00:21.669Z,15.15
2019-05-18T00:01:02.263Z,15.1
2019-05-18T00:01:42.847Z,15.11
2019-05-18T00:02:23.408Z,15.1
2019-05-18T00:03:03.969Z,15.15
2019-05-18T00:03:44.533Z,15.14
2019-05-18T00:04:25.101Z,15.1
2019-05-18T00:05:05.669Z,15.06
2019-05-18T00:05:46.263Z,15.09
2019-05-18T00:06:26.811Z,15.1
2019-05-18T00:07:07.389Z,14.99
2019-05-18T00:07:47.970Z,15.06
2019-05-18T00:08:28.541Z,15.04
2019-05-18T00:09:09.114Z,15.11
2019-05-18T00:09:49.738Z,15.03
2019-05-18T00:10:30.336Z,15.03
2019-05-18T00:11:10.959Z,15.02
2019-05-18T00:11:51.576Z,15.07
2019-05-18T00:12:32.143Z,15
2019-05-18T00:13:12.728Z,15
2019-05-18T00:13:53.344Z,15.02
2019-05-18T00:14:33.882Z,15
2019-05-18T00:15:14.461Z,15
2019-05-18T00:15:55.033Z,14.99
2019-05-18T00:16:35.641Z,14.96
2019-05-18T00:17:24.780Z,15
2019-05-18T00:17:56.799Z,14.94
2019-05-18T00:18:37.369Z,14.97
2019-05-18T00:19:17.949Z,14.97
2019-05-18T00:19:58.546Z,14.94
2019-05-18T00:20:39.155Z,14.97
2019-05-18T00:21:19.758Z,15.02
2019-05-18T00:22:00.601Z,15.02
2019-05-18T00:22:41.198Z,14.91
2019-05-18T00:23:21.748Z,14.99
2019-05-18T00:24:02.354Z,14.99
2019-05-18T00:24:42.928Z,14.91
2019-05-18T00:25:23.505Z,15
2019-05-18T00:26:04.083Z,14.96
2019-05-18T00:26:44.672Z,14.94
2019-05-18T00:27:25.260Z,14.88
2019-05-18T00:28:05.833Z,14.88
2019-05-18T00:28:46.463Z,14.89
2019-05-18T00:29:27.011Z,14.91
2019-05-18T00:30:07.620Z,14.85
2019-05-18T00:30:48.214Z,14.89
2019-05-18T00:31:28.788Z,14.88
2019-05-18T00:32:09.365Z,14.89
2019-05-18T00:32:49.931Z,14.91
2019-05-18T00:33:30.549Z,14.79
2019-05-18T00:34:11.110Z,14.96
2019-05-18T00:34:51.668Z,14.86
2019-05-18T00:35:32.277Z,14.81
2019-05-18T00:36:12.876Z,14.86
2019-05-18T00:36:53.436Z,14.94
2019-05-18T00:37:34.002Z,14.94
2019-05-18T00:38:14.601Z,14.84
2019-05-18T00:38:55.164Z,14.89
2019-05-18T00:39:35.719Z,14.92
2019-05-18T00:40:16.292Z,14.89
2019-05-18T00:40:56.846Z,14.88
2019-05-18T00:41:37.394Z,14.89
2019-05-18T00:42:17.961Z,14.91
2019-05-18T00:42:58.548Z,14.92
2019-05-18T00:43:39.205Z,14.92
2019-05-18T00:44:19.787Z,14.88
2019-05-18T00:45:00.355Z,14.81
2019-05-18T00:45:40.958Z,14.88
2019-05-18T00:46:21.514Z,14.88
2019-05-18T00:47:02.102Z,14.89
2019-05-18T00:47:42.665Z,14.85
2019-05-18T00:48:23.285Z,14.86
2019-05-18T00:49:03.835Z,14.82
2019-05-18T00:49:44.392Z,14.81
2019-05-18T00:50:24.936Z,14.79
2019-05-18T00:51:05.528Z,14.84
2019-05-18T00:51:46.059Z,14.82
2019-05-18T00:52:26.618Z,14.82
2019-05-18T00:53:07.190Z,14.79
2019-05-18T00:53:47.749Z,14.84
2019-05-18T00:54:28.330Z,14.81
2019-05-18T00:55:08.892Z,14.81
2019-05-18T00:55:49.446Z,14.79
2019-05-18T00:56:30.027Z,14.82
2019-05-18T00:57:10.621Z,14.68
2019-05-18T00:57:51.170Z,14.72
2019-05-18T00:58:31.802Z,14.69
2019-05-18T00:59:15.948Z,14.68
2019-05-18T00:59:52.924Z,14.72
2019-05-18T01:00:33.501Z,14.66
2019-05-18T01:01:14.079Z,14.69
2019-05-18T01:01:54.658Z,14.66
2019-05-18T01:02:35.214Z,14.66
2019-05-18T01:03:15.791Z,14.66
2019-05-18T01:03:56.354Z,14.68
2019-05-18T01:04:36.924Z,14.7
2019-05-18T01:05:17.527Z,14.77
2019-05-18T01:05:58.133Z,14.66
2019-05-18T01:06:38.710Z,14.72
2019-05-18T01:07:19.254Z,14.68
2019-05-18T01:07:59.841Z,14.63
2019-05-18T01:08:40.424Z,14.65
2019-05-18T01:09:21.003Z,14.55
2019-05-18T01:10:01.589Z,14.55
2019-05-18T01:10:42.184Z,14.53
2019-05-18T01:11:22.755Z,14.59
2019-05-18T01:12:03.414Z,14.66
2019-05-18T01:12:44.011Z,14.6
2019-05-18T01:13:24.614Z,14.63
2019-05-18T01:14:05.192Z,14.55
2019-05-18T01:14:45.781Z,14.6
2019-05-18T01:15:26.347Z,14.58
2019-05-18T01:16:06.915Z,14.66
2019-05-18T01:16:47.487Z,14.62
2019-05-18T01:17:28.080Z,14.58
2019-05-18T01:18:08.674Z,14.54
2019-05-18T01:18:49.230Z,14.63
2019-05-18T01:19:29.790Z,14.55
2019-05-18T01:20:10.354Z,14.54
2019-05-18T01:20:50.939Z,14.58
2019-05-18T01:21:31.547Z,14.58
2019-05-18T01:22:12.086Z,14.54
2019-05-18T01:22:52.701Z,14.5
2019-05-18T01:23:33.259Z,14.51
2019-05-18T01:24:13.813Z,14.54
2019-05-18T01:24:54.384Z,14.48
2019-05-18T01:25:34.951Z,14.48
2019-05-18T01:26:15.523Z,14.59
2019-05-18T01:26:56.079Z,14.51
2019-05-18T01:27:36.680Z,14.59
2019-05-18T01:28:17.203Z,14.53
2019-05-18T01:31:15.982Z,14.48
2019-05-18T01:31:56.557Z,14.51
2019-05-18T01:32:37.111Z,14.5
2019-05-18T01:33:17.688Z,14.44
2019-05-18T01:33:58.264Z,14.44
2019-05-18T01:34:38.866Z,14.47
2019-05-18T01:35:19.441Z,14.41
2019-05-18T01:36:00.009Z,14.37
2019-05-18T01:38:12.870Z,14.35
2019-05-18T01:38:53.427Z,14.43
2019-05-18T01:39:34.066Z,14.36
2019-05-18T01:40:14.665Z,14.41
2019-05-18T01:40:55.371Z,14.33
2019-05-18T01:41:36.021Z,14.35
2019-05-18T01:42:16.586Z,14.37
2019-05-18T01:42:57.165Z,14.18
2019-05-18T01:43:37.778Z,14.3
2019-05-18T01:44:18.340Z,14.26
2019-05-18T01:44:58.907Z,14.3
2019-05-18T01:45:39.548Z,14.32
2019-05-18T01:46:20.136Z,14.18
2019-05-18T01:47:00.846Z,14.18
2019-05-18T01:47:41.499Z,14.15
2019-05-18T01:48:22.161Z,14.22
2019-05-18T01:49:02.712Z,14.14
2019-05-18T01:49:43.285Z,14.18
2019-05-18T01:50:23.911Z,14.12
2019-05-18T01:51:04.499Z,14.15
2019-05-18T01:51:45.147Z,14.22
2019-05-18T01:52:25.688Z,14.2
2019-05-18T01:53:06.294Z,14.17
2019-05-18T01:53:46.890Z,14.12
2019-05-18T01:54:27.510Z,14.12
2019-05-18T01:55:08.119Z,14.1
2019-05-18T01:55:48.701Z,14.12
2019-05-18T01:56:29.278Z,14.12
2019-05-18T01:57:09.984Z,14.1
2019-05-18T01:57:50.558Z,14.08
2019-05-18T01:58:31.152Z,14.12
2019-05-18T01:59:11.740Z,14.08
2019-05-18T01:59:52.340Z,14.05
2019-05-18T02:00:32.947Z,14.08
2019-05-18T02:01:13.640Z,14.08
2019-05-18T02:01:54.306Z,14.08
2019-05-18T02:02:34.901Z,14.1
2019-05-18T02:03:15.527Z,14.15
2019-05-18T02:03:56.117Z,14.15
2019-05-18T02:04:36.756Z,14.11
2019-05-18T02:05:17.386Z,14.08
2019-05-18T02:05:57.989Z,14.1
2019-05-18T02:06:38.558Z,14.07
2019-05-18T02:07:19.193Z,14.05
2019-05-18T02:07:59.830Z,14.11
2019-05-18T02:08:40.450Z,14.1
2019-05-18T02:09:21.181Z,14.08
2019-05-18T02:10:02.159Z,14.07
2019-05-18T02:10:42.486Z,14.04
2019-05-18T02:11:23.079Z,14.05
2019-05-18T02:12:03.695Z,14.08
2019-05-18T02:12:44.284Z,14.05
2019-05-18T02:13:24.993Z,14.04
2019-05-18T02:14:05.611Z,14.1
2019-05-18T02:14:46.226Z,14.07
2019-05-18T02:15:26.876Z,14.04
2019-05-18T02:16:07.505Z,14.05
2019-05-18T02:16:48.059Z,14.03
2019-05-18T02:17:28.745Z,14
2019-05-18T02:18:09.454Z,14.07
2019-05-18T02:18:50.084Z,14.07
2019-05-18T02:19:30.714Z,14.04
2019-05-18T02:20:11.277Z,14.05
2019-05-18T02:20:51.867Z,13.99
2019-05-18T02:21:32.449Z,14.03
2019-05-18T02:22:13.033Z,14
2019-05-18T02:22:53.613Z,13.99
2019-05-18T02:23:34.202Z,13.97
2019-05-18T02:24:14.849Z,14.03
2019-05-18T02:24:55.504Z,14.03
2019-05-18T02:25:36.006Z,14
2019-05-18T02:26:16.584Z,13.93
2019-05-18T02:26:57.291Z,13.96
2019-05-18T02:27:37.994Z,13.97
2019-05-18T02:28:18.571Z,13.9
2019-05-18T02:28:59.171Z,13.95
2019-05-18T02:29:39.844Z,13.9
2019-05-18T02:30:20.457Z,13.95
2019-05-18T02:31:01.045Z,13.99
2019-05-18T02:31:41.627Z,13.99
2019-05-18T02:32:22.209Z,13.95
2019-05-18T02:33:02.853Z,13.97
2019-05-18T02:33:43.416Z,13.97
2019-05-18T02:34:24.025Z,13.93
2019-05-18T02:35:04.660Z,13.95
2019-05-18T02:35:45.211Z,13.9
2019-05-18T02:36:25.829Z,13.89
2019-05-18T02:37:06.524Z,13.9
2019-05-18T02:37:47.187Z,13.93
2019-05-18T02:38:27.837Z,13.92
2019-05-18T02:39:08.378Z,13.95
2019-05-18T02:42:07.215Z,13.9
2019-05-18T02:42:47.817Z,13.9
2019-05-18T02:43:28.461Z,13.86
2019-05-18T02:44:08.992Z,13.96
2019-05-18T02:44:49.571Z,13.81
2019-05-18T02:45:30.220Z,13.83
2019-05-18T02:46:10.799Z,13.85
2019-05-18T02:46:51.357Z,13.81
2019-05-18T02:47:31.974Z,13.83
2019-05-18T02:48:12.603Z,13.85
2019-05-18T02:48:59.762Z,13.78
2019-05-18T02:49:40.395Z,13.81
2019-05-18T02:50:20.956Z,13.77
2019-05-18T02:51:01.543Z,13.78
2019-05-18T02:51:42.124Z,13.79
2019-05-18T02:52:22.757Z,13.78
2019-05-18T02:53:03.362Z,13.74
2019-05-18T02:53:43.988Z,13.77
2019-05-18T02:54:24.578Z,13.74
2019-05-18T02:55:05.241Z,13.75
2019-05-18T02:55:45.944Z,13.79
2019-05-18T02:56:26.505Z,13.74
2019-05-18T02:57:07.213Z,13.68
2019-05-18T02:57:47.774Z,13.68
2019-05-18T02:58:28.353Z,13.68
2019-05-18T02:59:08.950Z,13.75
2019-05-18T02:59:49.554Z,13.7
2019-05-18T03:00:30.179Z,13.7
2019-05-18T03:01:10.793Z,13.59
2019-05-18T03:01:51.371Z,13.68
2019-05-18T03:02:31.968Z,13.7
2019-05-18T03:03:12.529Z,13.65
2019-05-18T03:03:53.182Z,13.65
2019-05-18T03:04:33.772Z,13.67
2019-05-18T03:05:14.511Z,13.63
2019-05-18T03:05:55.047Z,13.57
2019-05-18T03:06:35.665Z,13.67
2019-05-18T03:07:16.298Z,13.7
2019-05-18T03:07:56.908Z,13.63
2019-05-18T03:08:37.534Z,13.67
2019-05-18T03:09:18.168Z,13.65
2019-05-18T03:09:58.917Z,13.6
2019-05-18T03:10:39.519Z,13.62
2019-05-18T03:11:20.101Z,13.57
2019-05-18T03:12:00.676Z,13.59
2019-05-18T03:12:41.258Z,13.6
2019-05-18T03:13:21.844Z,13.6
2019-05-18T03:14:02.417Z,13.59
2019-05-18T03:14:43.035Z,13.62
2019-05-18T03:15:23.627Z,13.56
2019-05-18T03:16:04.207Z,13.59
2019-05-18T03:16:44.778Z,13.62
2019-05-18T03:17:25.423Z,13.57
2019-05-18T03:18:06.025Z,13.57
2019-05-18T03:18:46.654Z,13.6
2019-05-18T03:19:27.286Z,13.6
2019-05-18T03:20:07.870Z,13.59
2019-05-18T03:20:48.453Z,13.62
2019-05-18T03:21:29.319Z,13.54
2019-05-18T03:22:09.918Z,13.59
2019-05-18T03:22:50.476Z,13.6
2019-05-18T03:23:31.093Z,13.59
2019-05-18T03:24:11.668Z,13.57
2019-05-18T03:24:52.210Z,13.62
2019-05-18T03:25:32.830Z,13.56
2019-05-18T03:26:13.429Z,13.59
2019-05-18T03:26:54.045Z,13.57
2019-05-18T03:27:34.643Z,13.6
2019-05-18T03:28:15.273Z,13.6
2019-05-18T03:28:55.901Z,13.67
2019-05-18T03:29:36.518Z,13.59
2019-05-18T03:30:17.169Z,13.57
2019-05-18T03:30:57.876Z,13.67
2019-05-18T03:31:38.429Z,13.63
2019-05-18T03:32:19.003Z,13.67
2019-05-18T03:32:59.613Z,13.65
2019-05-18T03:33:40.292Z,13.63
2019-05-18T03:34:20.854Z,13.62
2019-05-18T03:35:01.614Z,13.67
2019-05-18T03:35:42.089Z,13.53
2019-05-18T03:36:22.627Z,13.68
2019-05-18T03:37:03.214Z,13.65
2019-05-18T03:37:43.783Z,13.6
2019-05-18T03:38:24.361Z,13.62
2019-05-18T03:39:05.098Z,13.57
2019-05-18T03:39:45.693Z,13.68
2019-05-18T03:40:26.222Z,13.62
2019-05-18T03:41:06.817Z,13.67
2019-05-18T03:41:47.490Z,13.67
2019-05-18T03:42:28.080Z,13.62
2019-05-18T03:43:08.646Z,13.59
2019-05-18T03:43:49.281Z,13.6
2019-05-18T03:44:29.973Z,13.7
2019-05-18T03:45:10.588Z,13.57
2019-05-18T03:45:51.225Z,13.59
2019-05-18T03:46:31.898Z,13.65
2019-05-18T03:47:12.487Z,13.6
2019-05-18T03:47:53.058Z,13.59
2019-05-18T03:48:33.645Z,13.57
2019-05-18T03:49:25.808Z,13.63
2019-05-18T03:49:54.919Z,13.6
2019-05-18T03:50:35.467Z,13.65
2019-05-18T03:51:16.069Z,13.68
2019-05-18T03:51:56.659Z,13.62
2019-05-18T03:52:37.229Z,13.62
2019-05-18T03:53:18.374Z,13.68
2019-05-18T03:53:58.444Z,13.6
2019-05-18T03:54:39.057Z,13.63
2019-05-18T03:55:19.647Z,13.65
2019-05-18T03:56:00.299Z,13.65
2019-05-18T03:56:40.877Z,13.63
2019-05-18T03:57:21.492Z,13.65
2019-05-18T03:58:02.057Z,13.59
2019-05-18T03:58:42.637Z,13.67
2019-05-18T03:59:23.206Z,13.59
2019-05-18T04:00:03.807Z,13.62
2019-05-18T04:00:44.363Z,13.68
2019-05-18T04:01:24.959Z,13.63
2019-05-18T04:02:05.552Z,13.71
2019-05-18T04:02:46.131Z,13.68
2019-05-18T04:03:26.687Z,13.59
2019-05-18T04:04:07.303Z,13.6
2019-05-18T04:04:47.892Z,13.72
2019-05-18T04:05:28.549Z,13.6
2019-05-18T04:06:09.129Z,13.56
2019-05-18T04:06:49.753Z,13.7
2019-05-18T04:07:30.348Z,13.65
2019-05-18T04:08:10.953Z,13.67
2019-05-18T04:08:51.506Z,13.6
2019-05-18T04:09:32.080Z,13.6
2019-05-18T04:10:12.728Z,13.59
2019-05-18T04:10:53.288Z,13.68
2019-05-18T04:11:33.878Z,13.75
2019-05-18T04:12:14.478Z,13.6
2019-05-18T04:12:55.052Z,13.68
2019-05-18T04:13:35.611Z,13.59
2019-05-18T04:14:16.185Z,13.68
2019-05-18T04:14:56.791Z,13.7
2019-05-18T04:15:37.413Z,13.68
2019-05-18T04:16:18.043Z,13.59
2019-05-18T04:16:58.580Z,13.75
2019-05-18T04:17:39.166Z,13.71
2019-05-18T04:18:19.736Z,13.7
2019-05-18T04:19:00.317Z,13.75
2019-05-18T04:19:46.678Z,13.71
2019-05-18T04:20:21.502Z,13.75
2019-05-18T04:21:02.119Z,13.71
2019-05-18T04:21:42.746Z,13.79
2019-05-18T04:22:23.335Z,13.68
2019-05-18T04:23:03.905Z,13.77
2019-05-18T04:23:44.487Z,13.78
2019-05-18T04:24:25.061Z,13.77
2019-05-18T04:25:05.629Z,13.78
2019-05-18T04:25:46.191Z,13.79
2019-05-18T04:26:26.797Z,13.83
2019-05-18T04:27:07.394Z,13.81
2019-05-18T04:27:47.958Z,13.83
2019-05-18T04:28:28.535Z,13.78
2019-05-18T04:29:09.125Z,13.85
2019-05-18T04:29:49.737Z,13.79
2019-05-18T04:30:30.297Z,13.86
2019-05-18T04:31:10.893Z,13.87
2019-05-18T04:31:51.459Z,13.81
2019-05-18T04:32:32.017Z,13.83
2019-05-18T04:33:12.581Z,13.77
2019-05-18T04:33:53.167Z,13.78
2019-05-18T04:34:33.775Z,13.81
2019-05-18T04:35:14.369Z,13.83
2019-05-18T04:35:54.959Z,13.95
2019-05-18T04:36:35.575Z,13.86
2019-05-18T04:37:16.164Z,13.86
2019-05-18T04:37:56.768Z,13.75
2019-05-18T04:38:37.352Z,13.83
2019-05-18T04:39:17.955Z,13.78
2019-05-18T04:39:58.530Z,13.77
2019-05-18T04:40:39.226Z,13.83
2019-05-18T04:41:19.816Z,13.78
2019-05-18T04:42:00.371Z,13.77
2019-05-18T04:42:40.986Z,13.75
2019-05-18T04:43:21.523Z,13.74
2019-05-18T04:44:02.111Z,13.78
2019-05-18T04:44:42.711Z,13.77
2019-05-18T04:45:23.347Z,13.74
2019-05-18T04:46:03.976Z,13.77
2019-05-18T04:46:44.551Z,13.79
2019-05-18T04:47:25.146Z,13.78
2019-05-18T04:48:05.787Z,13.77
2019-05-18T04:48:46.347Z,13.77
2019-05-18T04:49:26.915Z,13.79
2019-05-18T04:50:07.492Z,13.72
2019-05-18T04:50:48.093Z,13.77
2019-05-18T04:51:28.707Z,13.81
2019-05-18T04:52:09.263Z,13.79
2019-05-18T04:52:49.840Z,13.83
2019-05-18T04:53:30.425Z,13.81
2019-05-18T04:54:10.989Z,13.81
2019-05-18T04:54:51.573Z,13.78
2019-05-18T04:55:32.157Z,13.83
2019-05-18T04:56:12.908Z,13.83
2019-05-18T04:56:53.564Z,13.78
2019-05-18T04:57:34.230Z,13.78
2019-05-18T04:58:14.755Z,13.79
2019-05-18T04:58:55.391Z,13.83
2019-05-18T04:59:36.019Z,13.78
2019-05-18T05:00:16.615Z,13.81
2019-05-18T05:00:57.229Z,13.83
2019-05-18T05:01:37.807Z,13.86
2019-05-18T05:02:18.385Z,13.83
2019-05-18T05:02:59.038Z,13.87
2019-05-18T05:03:39.564Z,13.9
2019-05-18T05:04:20.173Z,13.86
2019-05-18T05:05:00.785Z,13.92
2019-05-18T05:05:41.350Z,13.92
2019-05-18T05:06:21.977Z,13.89
2019-05-18T05:07:02.636Z,13.9
2019-05-18T05:07:43.303Z,13.89
2019-05-18T05:08:23.881Z,13.9
2019-05-18T05:09:04.510Z,13.89
2019-05-18T05:09:45.100Z,13.95
2019-05-18T05:10:25.712Z,13.95
2019-05-18T05:11:06.265Z,13.96
2019-05-18T05:11:46.854Z,13.9
2019-05-18T05:12:27.477Z,13.92
2019-05-18T05:13:08.151Z,13.93
2019-05-18T05:13:48.750Z,13.92
2019-05-18T05:14:29.415Z,13.99
2019-05-18T05:15:10.217Z,14.04
2019-05-18T05:15:50.816Z,13.99
2019-05-18T05:19:04.806Z,14.04
2019-05-18T05:19:45.373Z,14.03
2019-05-18T05:20:26.011Z,14.05
2019-05-18T05:21:06.529Z,14.08
2019-05-18T05:21:47.129Z,14.04
2019-05-18T05:22:27.718Z,14.15
2019-05-18T05:23:08.312Z,14.12
2019-05-18T05:23:49.118Z,14.12
2019-05-18T05:24:29.714Z,14.15
2019-05-18T05:25:10.340Z,14.2
2019-05-18T05:25:50.983Z,14.3
2019-05-18T05:26:31.533Z,14.32
2019-05-18T05:27:12.111Z,14.35
2019-05-18T05:27:52.714Z,14.41
2019-05-18T05:28:33.293Z,14.33
2019-05-18T05:29:13.930Z,14.47
2019-05-18T05:29:54.510Z,14.53
2019-05-18T05:30:35.157Z,14.5
2019-05-18T05:31:15.897Z,14.6
2019-05-18T05:31:56.486Z,14.7
2019-05-18T05:32:37.049Z,14.72
2019-05-18T05:33:17.610Z,14.77
2019-05-18T05:33:58.167Z,14.88
2019-05-18T05:34:38.761Z,14.82
2019-05-18T05:35:19.376Z,15.02
2019-05-18T05:35:59.988Z,15.06
2019-05-18T05:36:40.598Z,15.11
2019-05-18T05:37:21.130Z,15.31
2019-05-18T05:38:01.692Z,15.29
2019-05-18T05:38:42.276Z,15.35
2019-05-18T05:39:22.842Z,15.52
2019-05-18T05:40:03.408Z,15.58
2019-05-18T05:40:44.022Z,15.58
2019-05-18T05:41:24.619Z,15.73
2019-05-18T05:42:05.224Z,15.88
2019-05-18T05:42:45.816Z,15.86
2019-05-18T05:43:26.442Z,16.01
2019-05-18T05:44:07.004Z,16.01
2019-05-18T05:44:47.580Z,16.12
2019-05-18T05:45:28.185Z,16.23
2019-05-18T05:46:08.874Z,16.35
2019-05-18T05:46:49.465Z,16.47
2019-05-18T05:47:30.022Z,16.56
2019-05-18T05:48:10.700Z,16.64
2019-05-18T05:48:51.268Z,16.66
2019-05-18T05:49:31.882Z,16.68
2019-05-18T05:50:12.688Z,16.79
2019-05-18T05:50:53.274Z,16.84
2019-05-18T05:51:33.857Z,17.02
2019-05-18T05:52:14.452Z,17.06
2019-05-18T05:52:55.111Z,17.19
2019-05-18T05:53:35.700Z,17.2
2019-05-18T05:54:16.312Z,17.3
2019-05-18T05:54:56.947Z,17.42
2019-05-18T05:55:37.546Z,17.44
2019-05-18T05:56:18.134Z,17.57
2019-05-18T05:56:58.731Z,17.57
2019-05-18T05:57:39.320Z,17.71
2019-05-18T05:58:19.921Z,17.78
2019-05-18T05:59:00.471Z,17.82
2019-05-18T05:59:41.099Z,17.92
2019-05-18T06:00:21.738Z,17.89
2019-05-18T06:01:02.470Z,17.94
2019-05-18T06:01:43.082Z,18.03
2019-05-18T06:02:23.692Z,18.01
2019-05-18T06:03:04.294Z,18.01
2019-05-18T06:03:44.864Z,18.01
2019-05-18T06:04:25.459Z,18.15
2019-05-18T06:05:06.036Z,18.13
2019-05-18T06:05:46.631Z,18.1
2019-05-18T06:06:27.236Z,18.25
2019-05-18T06:07:07.775Z,18.25
2019-05-18T06:07:48.337Z,18.26
2019-05-18T06:08:28.915Z,18.35
2019-05-18T06:09:09.511Z,18.33
2019-05-18T06:09:50.071Z,18.41
2019-05-18T06:10:30.714Z,18.53
2019-05-18T06:11:11.290Z,18.65
2019-05-18T06:11:51.859Z,18.74
2019-05-18T06:12:32.446Z,18.8
2019-05-18T06:13:13.029Z,18.9
2019-05-18T06:13:53.616Z,18.92
2019-05-18T06:14:34.231Z,18.96
2019-05-18T06:15:14.834Z,18.99
2019-05-18T06:15:55.432Z,19.02
2019-05-18T06:16:36.032Z,19.16
2019-05-18T06:17:16.623Z,19.22
2019-05-18T06:17:57.275Z,19.29
2019-05-18T06:18:37.807Z,19.3
2019-05-18T06:19:18.412Z,19.34
2019-05-18T06:19:58.986Z,19.41
2019-05-18T06:20:50.742Z,19.37
2019-05-18T06:21:20.258Z,19.44
2019-05-18T06:22:01.083Z,19.45
2019-05-18T06:22:41.704Z,19.4
2019-05-18T06:23:22.283Z,19.34
2019-05-18T06:24:02.862Z,19.44
2019-05-18T06:24:43.596Z,19.44
2019-05-18T06:25:24.151Z,19.49
2019-05-18T06:26:04.799Z,19.51
2019-05-18T06:26:45.364Z,19.47
2019-05-18T06:27:25.932Z,19.58
2019-05-18T06:28:06.537Z,19.66
2019-05-18T06:28:47.167Z,19.67
2019-05-18T06:29:27.752Z,19.63
2019-05-18T06:30:08.365Z,19.66
2019-05-18T06:30:49.084Z,19.71
2019-05-18T06:31:29.668Z,19.64
2019-05-18T06:32:10.262Z,19.67
2019-05-18T06:32:50.830Z,19.59
2019-05-18T06:33:31.411Z,19.71
2019-05-18T06:34:11.966Z,19.7
2019-05-18T06:34:52.559Z,19.82
2019-05-18T06:35:33.168Z,19.67
2019-05-18T06:36:13.744Z,19.82
2019-05-18T06:36:55.951Z,19.88
2019-05-18T06:37:34.887Z,19.92
2019-05-18T06:38:15.446Z,19.99
2019-05-18T06:38:56.048Z,20.07
2019-05-18T06:39:36.636Z,20.16
2019-05-18T06:40:17.282Z,20.18
2019-05-18T06:40:57.857Z,20.16
2019-05-18T06:41:38.417Z,20.18
2019-05-18T06:42:19.043Z,20.22
2019-05-18T06:42:59.700Z,20.16
2019-05-18T06:43:40.233Z,20.18
2019-05-18T06:44:20.812Z,20.24
2019-05-18T06:45:01.399Z,20.31
2019-05-18T06:45:42.086Z,20.26
2019-05-18T06:46:22.693Z,20.4
2019-05-18T06:47:03.274Z,20.48
2019-05-18T06:47:43.883Z,20.43
2019-05-18T06:48:24.495Z,20.5
2019-05-18T06:49:05.116Z,20.47
2019-05-18T06:49:45.677Z,20.55
2019-05-18T06:50:26.272Z,20.51
2019-05-18T06:51:07.750Z,20.52
2019-05-18T06:51:47.467Z,20.59
2019-05-18T06:52:28.434Z,20.65
2019-05-18T06:53:09.445Z,20.62
2019-05-18T06:53:51.013Z,20.69
2019-05-18T06:54:31.900Z,20.72
2019-05-18T06:55:12.410Z,20.78
2019-05-18T06:55:53.053Z,20.81
2019-05-18T06:56:33.669Z,20.81
2019-05-18T06:57:14.259Z,20.81
2019-05-18T06:57:56.621Z,20.9
2019-05-18T06:58:35.420Z,20.92
2019-05-18T06:59:16.488Z,20.93
2019-05-18T06:59:56.698Z,20.88
2019-05-18T07:00:37.278Z,20.82
2019-05-18T07:01:17.835Z,20.9
2019-05-18T07:01:58.486Z,20.84
2019-05-18T07:02:39.088Z,20.93
2019-05-18T07:03:19.747Z,20.96
2019-05-18T07:04:00.373Z,20.88
2019-05-18T07:04:40.974Z,21.09
2019-05-18T07:05:21.667Z,21.07
2019-05-18T07:06:02.541Z,21.06
2019-05-18T07:06:43.171Z,21.21
2019-05-18T07:07:23.808Z,21.18
2019-05-18T07:08:04.414Z,21.27
2019-05-18T07:08:44.945Z,21.33
2019-05-18T07:09:25.565Z,21.36
2019-05-18T07:10:06.140Z,21.33
2019-05-18T07:10:46.733Z,21.33
2019-05-18T07:11:27.520Z,21.43
2019-05-18T07:12:08.108Z,21.46
2019-05-18T07:12:48.698Z,21.43
2019-05-18T07:13:29.288Z,21.55
2019-05-18T07:14:18.059Z,21.5
2019-05-18T07:14:50.426Z,21.54
2019-05-18T07:15:31.070Z,21.7
2019-05-18T07:16:11.624Z,21.57
2019-05-18T07:16:52.251Z,21.77
2019-05-18T07:17:34.634Z,21.77
2019-05-18T07:18:13.366Z,21.82
2019-05-18T07:18:53.995Z,21.95
2019-05-18T07:19:34.608Z,21.92
2019-05-18T07:20:15.203Z,21.99
2019-05-18T07:20:55.882Z,21.95
2019-05-18T07:21:36.553Z,22.07
2019-05-18T07:22:17.487Z,22.08
2019-05-18T07:22:58.092Z,22.11
2019-05-18T07:23:38.669Z,22.13
2019-05-18T07:24:19.262Z,22.11
2019-05-18T07:24:59.902Z,22.08
2019-05-18T07:25:40.506Z,22.15
2019-05-18T07:26:21.098Z,22.17
2019-05-18T07:27:01.794Z,22.3
2019-05-18T07:27:42.346Z,22.35
2019-05-18T07:28:23.033Z,22.32
2019-05-18T07:29:05.608Z,22.48
2019-05-18T07:29:44.269Z,22.41
2019-05-18T07:30:24.859Z,22.47
2019-05-18T07:31:05.547Z,22.44
2019-05-18T07:31:46.125Z,22.45
2019-05-18T07:32:26.829Z,22.53
2019-05-18T07:33:07.449Z,22.54
2019-05-18T07:33:48.122Z,22.44
2019-05-18T07:34:28.683Z,22.59
2019-05-18T07:35:09.314Z,22.65
2019-05-18T07:35:49.933Z,22.6
2019-05-18T07:36:30.534Z,22.62
2019-05-18T07:37:11.135Z,22.65
2019-05-18T07:37:51.765Z,22.59
2019-05-18T07:38:32.326Z,22.55
2019-05-18T07:39:12.917Z,22.53
2019-05-18T07:39:53.543Z,22.5
2019-05-18T07:40:34.263Z,22.59
2019-05-18T07:41:14.836Z,22.55
2019-05-18T07:41:55.444Z,22.5
2019-05-18T07:42:36.100Z,22.54
2019-05-18T07:43:16.657Z,22.54
2019-05-18T07:43:57.270Z,22.59
2019-05-18T07:44:37.895Z,22.55
2019-05-18T07:45:18.621Z,22.59
2019-05-18T07:45:59.214Z,22.6
2019-05-18T07:46:39.883Z,22.62
2019-05-18T07:47:20.492Z,22.57
2019-05-18T07:48:01.139Z,22.51
2019-05-18T07:48:41.739Z,22.41
2019-05-18T07:49:22.425Z,22.38
2019-05-18T07:50:02.970Z,22.38
2019-05-18T07:50:43.567Z,22.36
2019-05-18T07:51:36.216Z,22.41
2019-05-18T07:52:04.771Z,22.38
2019-05-18T07:52:45.433Z,22.36
2019-05-18T07:53:26.034Z,22.39
2019-05-18T07:54:06.607Z,22.45
2019-05-18T07:54:47.195Z,22.35
2019-05-18T07:55:27.832Z,22.39
2019-05-18T07:56:08.461Z,22.47
2019-05-18T07:56:49.082Z,22.38
2019-05-18T07:57:29.766Z,22.38
2019-05-18T07:58:10.403Z,22.33
2019-05-18T07:58:50.983Z,22.33
2019-05-18T07:59:31.713Z,22.29
2019-05-18T08:00:12.274Z,22.26
2019-05-18T08:00:52.837Z,22.28
2019-05-18T08:01:33.559Z,22.26
2019-05-18T08:02:14.220Z,22.38
2019-05-18T08:02:54.813Z,22.36
2019-05-18T08:03:35.403Z,22.3
2019-05-18T08:04:16.032Z,22.23
2019-05-18T08:04:56.673Z,22.22
2019-05-18T08:05:37.239Z,22.23
2019-05-18T08:06:17.875Z,22.32
2019-05-18T08:06:58.472Z,22.29
2019-05-18T08:07:39.134Z,22.29
2019-05-18T08:08:19.679Z,22.32
2019-05-18T08:09:00.275Z,22.28
2019-05-18T08:09:40.888Z,22.33
2019-05-18T08:10:21.490Z,22.33
2019-05-18T08:11:02.088Z,22.47
2019-05-18T08:11:42.758Z,22.48
2019-05-18T08:12:23.460Z,22.41
2019-05-18T08:13:04.069Z,22.48
2019-05-18T08:13:44.736Z,22.51
2019-05-18T08:14:25.368Z,22.48
2019-05-18T08:15:05.923Z,22.47
2019-05-18T08:15:46.669Z,22.51
2019-05-18T08:16:27.553Z,22.57
2019-05-18T08:17:08.215Z,22.55
2019-05-18T08:17:48.826Z,22.51
2019-05-18T08:18:29.506Z,22.51
2019-05-18T08:19:10.407Z,22.54
2019-05-18T08:19:52.082Z,22.53
2019-05-18T08:20:32.678Z,22.62
2019-05-18T08:21:13.264Z,22.66
2019-05-18T08:21:55.256Z,22.62
2019-05-18T08:22:35.857Z,22.65
2019-05-18T08:23:16.466Z,22.69
2019-05-18T08:23:57.065Z,22.69
2019-05-18T08:24:37.674Z,22.59
2019-05-18T08:25:18.243Z,22.68
2019-05-18T08:25:58.819Z,22.69
2019-05-18T08:26:39.394Z,22.68
2019-05-18T08:27:19.969Z,22.65
2019-05-18T08:28:00.555Z,22.69
2019-05-18T08:28:41.115Z,22.72
2019-05-18T08:29:21.720Z,22.7
2019-05-18T08:30:02.366Z,22.73
2019-05-18T08:30:42.979Z,22.75
2019-05-18T08:31:23.590Z,22.75
2019-05-18T08:32:04.202Z,22.75
2019-05-18T08:32:44.802Z,22.69
2019-05-18T08:33:25.377Z,22.73
2019-05-18T08:34:05.969Z,22.75
2019-05-18T08:34:46.546Z,22.8
2019-05-18T08:35:27.461Z,22.66
2019-05-18T08:36:07.669Z,22.66
2019-05-18T08:36:48.279Z,22.6
2019-05-18T08:37:28.847Z,22.54
2019-05-18T08:38:09.437Z,22.62
2019-05-18T08:38:50.020Z,22.59
2019-05-18T08:39:30.625Z,22.59
2019-05-18T08:40:11.177Z,22.57
2019-05-18T08:40:51.799Z,22.53
2019-05-18T08:41:32.407Z,22.5
2019-05-18T08:42:13.012Z,22.51
2019-05-18T08:42:53.591Z,22.45
2019-05-18T08:43:34.183Z,22.48
2019-05-18T08:44:14.717Z,22.44
2019-05-18T08:44:55.286Z,22.38
2019-05-18T08:45:35.908Z,22.35
2019-05-18T08:46:16.490Z,22.3
2019-05-18T08:46:57.075Z,22.25
2019-05-18T08:47:37.653Z,22.35
2019-05-18T08:48:18.238Z,22.26
2019-05-18T08:48:58.849Z,22.26
2019-05-18T08:49:39.426Z,22.32
2019-05-18T08:50:20.054Z,22.2
2019-05-18T08:51:00.617Z,22.26
2019-05-18T08:51:41.203Z,22.2
2019-05-18T08:52:21.771Z,22.17
2019-05-18T08:53:02.367Z,22.18
2019-05-18T08:53:42.951Z,22.15
2019-05-18T08:54:23.517Z,22.22